createdAt,value
2018-12-06T00:01:29.141Z,35.00
2018-12-06T00:03:57.505Z,33.63
2018-12-06T00:06:25.953Z,35.17
2018-12-06T00:08:54.300Z,70.37
2018-12-06T00:11:22.751Z,79.67
2018-12-06T00:13:51.068Z,48.80
2018-12-06T00:16:19.456Z,53.83
2018-12-06T00:18:57.714Z,45.13
2018-12-06T00:21:26.067Z,25.47
2018-12-06T00:23:54.445Z,33.27
2018-12-06T00:26:23.059Z,39.07
2018-12-06T00:28:51.494Z,43.80
2018-12-06T00:31:19.900Z,33.70
2018-12-06T00:33:48.369Z,32.23
2018-12-06T00:36:16.791Z,39.67
2018-12-06T00:38:45.204Z,31.73
2018-12-06T00:41:13.644Z,34.20
2018-12-06T00:43:42.075Z,31.23
2018-12-06T00:46:10.503Z,66.40
2018-12-06T00:48:38.859Z,53.30
2018-12-06T00:51:07.244Z,57.63
2018-12-06T00:53:35.638Z,54.87
2018-12-06T00:56:04.001Z,39.47
2018-12-06T00:58:32.413Z,33.17
2018-12-06T01:01:00.838Z,24.70
2018-12-06T01:03:29.330Z,24.97
2018-12-06T01:05:57.712Z,29.13
2018-12-06T01:08:26.149Z,27.13
2018-12-06T01:10:54.545Z,25.53
2018-12-06T01:13:22.887Z,22.07
2018-12-06T01:15:51.307Z,27.97
2018-12-06T01:18:19.670Z,22.13
2018-12-06T01:20:48.049Z,27.33
2018-12-06T01:23:16.464Z,23.73
2018-12-06T01:25:44.829Z,24.60
2018-12-06T01:28:13.306Z,32.20
2018-12-06T01:30:41.700Z,28.43
2018-12-06T01:33:10.042Z,31.60
2018-12-06T01:35:38.408Z,24.70
2018-12-06T01:38:06.803Z,26.50
2018-12-06T01:40:35.192Z,29.50
2018-12-06T01:43:03.835Z,25.80
2018-12-06T01:45:32.822Z,30.60
2018-12-06T01:48:01.247Z,26.23
2018-12-06T01:50:29.630Z,24.10
2018-12-06T01:52:58.009Z,32.20
2018-12-06T01:55:26.384Z,28.97
2018-12-06T01:57:54.743Z,27.20
2018-12-06T02:00:23.146Z,31.10
2018-12-06T02:02:51.611Z,28.50
2018-12-06T02:05:21.028Z,26.97
2018-12-06T02:07:49.445Z,27.10
2018-12-06T02:10:17.829Z,27.07
2018-12-06T02:12:46.268Z,29.70
2018-12-06T02:15:14.789Z,27.93
2018-12-06T02:17:43.189Z,25.60
2018-12-06T02:20:11.576Z,28.83
2018-12-06T02:22:41.195Z,31.40
2018-12-06T02:25:09.624Z,30.60
2018-12-06T02:27:37.984Z,32.67
2018-12-06T02:30:06.373Z,34.30
2018-12-06T02:32:34.769Z,32.30
2018-12-06T02:35:03.199Z,33.30
2018-12-06T02:37:31.715Z,35.10
2018-12-06T02:40:01.138Z,31.70
2018-12-06T02:42:29.570Z,32.73
2018-12-06T02:44:58.045Z,30.87
2018-12-06T02:47:28.786Z,31.47
2018-12-06T02:49:57.536Z,55.77
2018-12-06T02:52:26.401Z,45.97
2018-12-06T02:54:57.193Z,35.57
2018-12-06T02:57:25.655Z,26.73
2018-12-06T02:59:54.092Z,26.90
2018-12-06T03:02:24.525Z,28.43
2018-12-06T03:04:53.100Z,27.93
2018-12-06T03:07:23.216Z,27.03
2018-12-06T03:09:51.689Z,27.60
2018-12-06T03:12:20.386Z,24.23
2018-12-06T03:14:48.951Z,26.37
2018-12-06T03:17:17.406Z,25.10
2018-12-06T03:19:47.747Z,26.20
2018-12-06T03:22:16.335Z,27.63
2018-12-06T03:24:44.770Z,29.40
2018-12-06T03:27:13.178Z,26.77
2018-12-06T03:29:42.535Z,33.40
2018-12-06T03:32:10.962Z,26.83
2018-12-06T03:34:39.341Z,27.27
2018-12-06T03:37:07.755Z,26.77
2018-12-06T03:39:36.261Z,28.80
2018-12-06T03:42:04.716Z,31.20
2018-12-06T03:44:36.274Z,27.87
2018-12-06T03:47:04.913Z,29.53
2018-12-06T03:49:33.325Z,26.20
2018-12-06T03:52:02.262Z,27.60
2018-12-06T03:54:30.637Z,26.27
2018-12-06T03:56:59.196Z,27.17
2018-12-06T03:59:29.757Z,31.50
2018-12-06T04:01:58.158Z,31.63
2018-12-06T04:04:26.515Z,34.73
2018-12-06T04:06:54.884Z,40.00
2018-12-06T04:09:23.325Z,30.33
2018-12-06T04:11:51.669Z,35.00
2018-12-06T04:14:22.697Z,38.30
2018-12-06T04:16:51.188Z,36.30
2018-12-06T04:19:19.534Z,42.93
2018-12-06T04:21:50.048Z,42.23
2018-12-06T04:24:18.579Z,42.77
2018-12-06T04:26:47.022Z,44.17
2018-12-06T04:29:17.178Z,47.20
2018-12-06T04:31:45.630Z,47.23
2018-12-06T04:34:14.081Z,48.37
2018-12-06T04:36:42.462Z,44.50
2018-12-06T04:39:10.873Z,44.10
2018-12-06T04:41:39.301Z,44.97
2018-12-06T04:44:11.953Z,38.03
2018-12-06T04:46:40.435Z,46.97
2018-12-06T04:49:08.878Z,42.40
2018-12-06T04:51:39.492Z,41.50
2018-12-06T04:54:08.105Z,38.60
2018-12-06T04:56:36.480Z,36.20
2018-12-06T04:59:07.258Z,43.77
2018-12-06T05:01:36.199Z,37.53
2018-12-06T05:04:04.689Z,37.80
2018-12-06T05:06:35.500Z,42.27
2018-12-06T05:09:05.846Z,43.37
2018-12-06T05:11:34.468Z,38.93
2018-12-06T05:14:05.062Z,39.57
2018-12-06T05:16:33.929Z,39.27
2018-12-06T05:19:02.874Z,33.80
2018-12-06T05:21:31.208Z,38.17
2018-12-06T05:23:59.676Z,42.17
2018-12-06T05:26:30.400Z,37.83
2018-12-06T05:28:59.562Z,32.13
2018-12-06T05:31:28.028Z,37.80
2018-12-06T05:33:58.997Z,31.40
2018-12-06T05:36:27.517Z,31.97
2018-12-06T05:38:56.437Z,30.60
2018-12-06T05:41:27.085Z,34.13
2018-12-06T05:43:56.349Z,26.93
2018-12-06T05:46:25.719Z,28.40
2018-12-06T05:48:56.019Z,24.80
2018-12-06T05:51:24.578Z,31.30
2018-12-06T05:53:53.532Z,27.10
2018-12-06T05:56:23.739Z,25.70
2018-12-06T05:58:52.311Z,26.50
2018-12-06T06:01:20.733Z,27.00
2018-12-06T06:03:51.287Z,22.53
2018-12-06T06:06:19.774Z,26.57
2018-12-06T06:08:48.194Z,21.93
2018-12-06T06:11:18.185Z,25.67
2018-12-06T06:13:46.607Z,24.60
2018-12-06T06:16:15.014Z,27.03
2018-12-06T06:18:45.132Z,23.80
2018-12-06T06:21:15.339Z,22.50
2018-12-06T06:23:43.749Z,23.73
2018-12-06T06:26:13.505Z,25.67
2018-12-06T06:28:42.078Z,23.90
2018-12-06T06:31:10.602Z,22.50
2018-12-06T06:33:40.713Z,25.07
2018-12-06T06:36:09.276Z,23.43
2018-12-06T06:38:37.731Z,32.97
2018-12-06T06:41:06.288Z,27.40
2018-12-06T06:43:34.830Z,28.60
2018-12-06T06:46:03.575Z,29.03
2018-12-06T06:48:32.012Z,26.97
2018-12-06T06:51:02.075Z,27.17
2018-12-06T06:53:30.447Z,25.27
2018-12-06T06:55:58.874Z,29.93
2018-12-06T06:58:28.842Z,33.87
2018-12-06T07:00:57.610Z,26.73
2018-12-06T07:03:26.022Z,27.93
2018-12-06T07:05:54.380Z,28.90
2018-12-06T07:08:22.741Z,32.20
2018-12-06T07:10:51.306Z,30.00
2018-12-06T07:13:19.807Z,31.00
2018-12-06T07:15:48.192Z,30.03
2018-12-06T07:18:16.547Z,27.30
2018-12-06T07:20:44.917Z,38.37
2018-12-06T07:23:13.290Z,27.37
2018-12-06T07:25:46.231Z,27.80
2018-12-06T07:28:12.013Z,29.30
2018-12-06T07:30:45.367Z,26.57
2018-12-06T07:33:13.754Z,36.57
2018-12-06T07:35:42.191Z,30.03
2018-12-06T07:38:10.543Z,28.80
2018-12-06T07:40:38.862Z,25.80
2018-12-06T07:43:11.304Z,27.97
2018-12-06T07:45:41.456Z,28.10
2018-12-06T07:48:09.776Z,26.97
2018-12-06T07:50:38.161Z,20.90
2018-12-06T07:53:06.828Z,20.17
2018-12-06T07:55:35.298Z,20.17
2018-12-06T07:58:03.668Z,28.67
2018-12-06T08:00:32.293Z,27.67
2018-12-06T08:03:01.020Z,23.63
2018-12-06T08:05:29.436Z,24.67
2018-12-06T08:07:57.825Z,18.40
2018-12-06T08:10:26.395Z,20.80
2018-12-06T08:12:54.918Z,22.13
2018-12-06T08:15:23.575Z,15.60
2018-12-06T08:17:52.006Z,16.33
2018-12-06T08:20:20.759Z,18.77
2018-12-06T08:22:49.934Z,16.93
2018-12-06T08:25:18.369Z,15.00
2018-12-06T08:27:55.524Z,17.50
2018-12-06T08:30:23.947Z,14.70
2018-12-06T08:32:52.291Z,14.97
2018-12-06T08:35:20.660Z,16.30
2018-12-06T08:37:49.073Z,19.70
2018-12-06T08:40:17.465Z,17.50
2018-12-06T08:42:47.222Z,13.97
2018-12-06T08:45:15.562Z,11.20
2018-12-06T08:47:43.916Z,18.13
2018-12-06T08:50:12.289Z,11.47
2018-12-06T08:52:40.641Z,12.10
2018-12-06T08:55:12.143Z,12.63
2018-12-06T08:57:40.973Z,13.57
2018-12-06T09:00:10.867Z,15.30
2018-12-06T09:02:39.944Z,11.23
2018-12-06T09:05:08.392Z,13.40
2018-12-06T09:07:37.054Z,11.50
2018-12-06T09:10:06.589Z,13.50
2018-12-06T09:12:34.964Z,12.73
2018-12-06T09:15:03.355Z,13.80
2018-12-06T09:17:36.226Z,16.13
2018-12-06T09:20:05.520Z,12.67
2018-12-06T09:22:35.069Z,15.63
2018-12-06T09:25:03.412Z,15.80
2018-12-06T09:27:31.768Z,16.30
2018-12-06T09:30:03.816Z,14.73
2018-12-06T09:32:32.203Z,15.53
2018-12-06T09:35:01.309Z,13.63
2018-12-06T09:37:30.036Z,15.03
2018-12-06T09:40:00.305Z,17.40
2018-12-06T09:42:28.652Z,14.20
2018-12-06T09:44:57.869Z,11.73
2018-12-06T09:47:26.234Z,15.70
2018-12-06T09:49:54.571Z,15.10
2018-12-06T09:52:24.256Z,25.30
2018-12-06T09:54:55.591Z,17.20
2018-12-06T09:57:24.159Z,12.93
2018-12-06T09:59:52.483Z,15.87
2018-12-06T10:02:21.485Z,16.73
2018-12-06T10:04:50.091Z,14.30
2018-12-06T10:07:18.436Z,19.73
2018-12-06T10:09:46.811Z,16.43
2018-12-06T10:12:16.021Z,14.40
2018-12-06T10:14:46.507Z,13.47
2018-12-06T10:17:14.902Z,12.90
2018-12-06T10:19:46.953Z,12.83
2018-12-06T10:22:19.766Z,12.33
2018-12-06T10:24:48.208Z,17.00
2018-12-06T10:27:16.544Z,13.10
2018-12-06T10:29:44.883Z,12.47
2018-12-06T10:32:13.223Z,12.30
2018-12-06T10:34:41.583Z,9.90
2018-12-06T10:37:13.290Z,10.50
2018-12-06T10:39:41.676Z,10.70
2018-12-06T10:42:10.003Z,9.20
2018-12-06T10:44:38.343Z,10.80
2018-12-06T10:47:06.707Z,10.20
2018-12-06T10:49:35.986Z,9.80
2018-12-06T10:52:04.335Z,7.07
2018-12-06T10:54:32.637Z,9.00
2018-12-06T10:57:04.416Z,9.10
2018-12-06T10:59:32.866Z,6.13
2018-12-06T11:02:07.535Z,7.20
2018-12-06T11:04:36.665Z,11.27
2018-12-06T11:07:06.388Z,7.73
2018-12-06T11:09:34.738Z,6.33
2018-12-06T11:12:12.946Z,6.67
2018-12-06T11:14:41.785Z,5.03
2018-12-06T11:17:10.366Z,6.53
2018-12-06T11:19:38.706Z,9.23
2018-12-06T11:22:07.063Z,6.23
2018-12-06T11:24:37.078Z,8.57
2018-12-06T11:27:10.613Z,7.70
2018-12-06T11:29:38.933Z,8.13
2018-12-06T11:32:07.289Z,7.53
2018-12-06T11:34:36.430Z,7.00
2018-12-06T11:37:04.783Z,6.73
2018-12-06T11:39:33.965Z,10.07
2018-12-06T11:42:02.304Z,19.37
2018-12-06T11:44:30.668Z,8.47
2018-12-06T11:46:59.892Z,8.73
2018-12-06T11:49:28.233Z,8.43
2018-12-06T11:51:56.940Z,9.63
2018-12-06T11:54:25.354Z,6.60
2018-12-06T11:56:54.548Z,8.43
2018-12-06T11:59:23.000Z,12.87
2018-12-06T12:01:52.039Z,8.53
2018-12-06T12:04:20.398Z,11.83
2018-12-06T12:06:48.976Z,7.53
2018-12-06T12:09:17.305Z,6.47
2018-12-06T12:11:45.984Z,8.47
2018-12-06T12:14:14.472Z,8.77
2018-12-06T12:16:44.799Z,10.73
2018-12-06T12:19:16.477Z,18.83
2018-12-06T12:21:44.909Z,14.40
2018-12-06T12:24:13.304Z,9.80
2018-12-06T12:26:41.712Z,12.53
2018-12-06T12:29:10.179Z,8.37
2018-12-06T12:31:38.564Z,8.87
2018-12-06T12:34:07.471Z,9.27
2018-12-06T12:37:38.966Z,8.43
2018-12-06T12:40:09.891Z,9.07
2018-12-06T12:42:38.290Z,10.63
2018-12-06T12:45:07.168Z,7.50
2018-12-06T12:47:36.243Z,5.20
2018-12-06T12:50:06.820Z,8.00
2018-12-06T12:52:35.174Z,11.27
2018-12-06T12:55:09.301Z,7.70
2018-12-06T12:57:38.185Z,9.13
2018-12-06T13:00:07.072Z,11.07
2018-12-06T13:02:36.262Z,9.70
2018-12-06T13:05:04.883Z,8.43
2018-12-06T13:07:33.371Z,8.40
2018-12-06T13:10:02.534Z,8.10
2018-12-06T13:12:30.867Z,7.60
2018-12-06T13:15:00.392Z,8.67
2018-12-06T13:17:28.713Z,6.10
2018-12-06T13:19:57.045Z,7.77
2018-12-06T13:22:26.937Z,5.40
2018-12-06T13:24:55.300Z,8.70
2018-12-06T13:27:24.608Z,7.30
2018-12-06T13:29:52.953Z,6.70
2018-12-06T13:32:21.324Z,10.40
2018-12-06T13:34:49.718Z,9.93
2018-12-06T13:37:18.304Z,17.77
2018-12-06T13:39:49.215Z,15.47
2018-12-06T13:42:23.597Z,9.17
2018-12-06T13:44:53.753Z,6.97
2018-12-06T13:47:22.708Z,11.80
2018-12-06T13:49:54.997Z,18.17
2018-12-06T13:52:23.703Z,8.17
2018-12-06T13:54:52.557Z,6.50
2018-12-06T13:57:21.435Z,10.13
2018-12-06T13:59:50.572Z,5.50
2018-12-06T14:02:19.370Z,14.80
2018-12-06T14:04:48.118Z,7.83
2018-12-06T14:07:21.091Z,10.20
2018-12-06T14:09:49.657Z,12.03
2018-12-06T14:12:22.643Z,16.87
2018-12-06T14:14:51.245Z,8.73
2018-12-06T14:17:20.641Z,8.10
2018-12-06T14:19:55.512Z,8.30
2018-12-06T14:22:23.924Z,12.57
2018-12-06T14:24:52.303Z,26.43
2018-12-06T14:27:20.705Z,13.30
2018-12-06T14:29:49.063Z,7.07
2018-12-06T14:32:21.475Z,7.00
2018-12-06T14:34:49.838Z,8.90
2018-12-06T14:37:18.164Z,6.40
2018-12-06T14:39:46.560Z,6.47
2018-12-06T14:42:15.115Z,6.33
2018-12-06T14:44:43.491Z,6.07
2018-12-06T14:47:11.848Z,6.47
2018-12-06T14:49:40.205Z,8.87
2018-12-06T14:52:08.620Z,5.77
2018-12-06T14:54:42.004Z,8.63
2018-12-06T14:57:10.410Z,9.10
2018-12-06T14:59:38.749Z,6.30
2018-12-06T15:02:07.073Z,5.10
2018-12-06T15:04:35.399Z,10.27
2018-12-06T15:07:03.779Z,4.27
2018-12-06T15:09:32.108Z,6.83
2018-12-06T15:12:00.456Z,4.93
2018-12-06T15:14:28.807Z,20.63
2018-12-06T15:16:57.508Z,5.83
2018-12-06T15:19:25.878Z,6.83
2018-12-06T15:22:00.507Z,4.97
2018-12-06T15:24:28.913Z,6.10
2018-12-06T15:26:57.382Z,8.30
2018-12-06T15:29:25.818Z,4.43
2018-12-06T15:31:54.126Z,6.67
2018-12-06T15:34:26.192Z,6.50
2018-12-06T15:36:58.735Z,8.00
2018-12-06T15:39:30.763Z,5.83
2018-12-06T15:41:59.227Z,4.60
2018-12-06T15:44:27.624Z,6.30
2018-12-06T15:46:56.004Z,8.20
2018-12-06T15:49:24.384Z,5.03
2018-12-06T15:51:52.757Z,8.00
2018-12-06T15:54:21.255Z,10.70
2018-12-06T15:56:50.294Z,5.00
2018-12-06T15:59:18.613Z,6.60
2018-12-06T16:01:46.941Z,5.93
2018-12-06T16:04:15.913Z,7.33
2018-12-06T16:06:44.250Z,7.13
2018-12-06T16:09:12.540Z,10.53
2018-12-06T16:11:40.941Z,8.53
2018-12-06T16:14:09.672Z,9.10
2018-12-06T16:16:42.969Z,8.17
2018-12-06T16:19:12.039Z,7.87
2018-12-06T16:21:40.367Z,6.47
2018-12-06T16:24:08.731Z,9.53
2018-12-06T16:26:43.271Z,11.30
2018-12-06T16:29:12.041Z,19.43
2018-12-06T16:31:40.387Z,15.40
2018-12-06T16:34:08.772Z,17.17
2018-12-06T16:36:37.129Z,19.60
2018-12-06T16:39:07.631Z,14.30
2018-12-06T16:41:36.071Z,12.73
2018-12-06T16:44:04.885Z,15.63
2018-12-06T16:46:33.280Z,32.63
2018-12-06T16:49:09.891Z,27.80
2018-12-06T16:51:33.729Z,16.37
2018-12-06T16:54:03.140Z,13.57
2018-12-06T16:56:34.983Z,77.30
2018-12-06T16:59:03.362Z,22.47
2018-12-06T17:01:31.740Z,12.03
2018-12-06T17:04:00.085Z,10.50
2018-12-06T17:06:29.302Z,11.20
2018-12-06T17:08:58.413Z,9.13
2018-12-06T17:11:26.833Z,10.73
2018-12-06T17:13:57.289Z,39.30
2018-12-06T17:16:25.725Z,20.90
2018-12-06T17:18:54.190Z,12.20
2018-12-06T17:21:23.488Z,14.10
2018-12-06T17:23:51.879Z,12.20
2018-12-06T17:26:20.213Z,6.60
2018-12-06T17:28:48.576Z,8.80
2018-12-06T17:31:17.263Z,5.63
2018-12-06T17:33:46.536Z,6.73
2018-12-06T17:36:15.854Z,9.47
2018-12-06T17:38:44.344Z,8.23
2018-12-06T17:41:12.694Z,5.50
2018-12-06T17:43:41.013Z,6.03
2018-12-06T17:46:11.058Z,8.00
2018-12-06T17:48:39.433Z,8.70
2018-12-06T17:51:07.904Z,6.23
2018-12-06T17:53:37.274Z,5.70
2018-12-06T17:56:05.824Z,5.50
2018-12-06T17:58:34.528Z,10.50
2018-12-06T18:01:03.019Z,8.20
2018-12-06T18:03:31.444Z,6.60
2018-12-06T18:05:59.876Z,8.37
2018-12-06T18:08:28.267Z,8.30
2018-12-06T18:10:57.138Z,10.30
2018-12-06T18:13:25.838Z,5.50
2018-12-06T18:15:55.946Z,5.40
2018-12-06T18:18:24.388Z,4.70
2018-12-06T18:20:52.747Z,6.70
2018-12-06T18:23:21.174Z,7.50
2018-12-06T18:25:49.567Z,5.77
2018-12-06T18:28:17.902Z,5.80
2018-12-06T18:30:47.344Z,6.10
2018-12-06T18:33:16.099Z,8.37
2018-12-06T18:35:44.512Z,8.60
2018-12-06T18:38:14.390Z,8.90
2018-12-06T18:44:00.979Z,4.93
2018-12-06T18:46:29.501Z,5.70
2018-12-06T18:48:58.046Z,4.97
2018-12-06T18:51:28.473Z,10.60
2018-12-06T18:53:56.969Z,5.20
2018-12-06T18:56:25.417Z,3.87
2018-12-06T18:58:53.797Z,4.40
2018-12-06T19:01:22.769Z,4.53
2018-12-06T19:03:51.552Z,4.73
2018-12-06T19:06:19.908Z,5.60
2018-12-06T19:08:48.794Z,4.83
2018-12-06T19:11:17.213Z,10.40
2018-12-06T19:13:45.867Z,8.87
2018-12-06T19:16:18.705Z,12.97
2018-12-06T19:18:51.057Z,7.50
2018-12-06T19:21:19.460Z,11.40
2018-12-06T19:23:47.794Z,11.40
2018-12-06T19:26:16.203Z,8.93
2018-12-06T19:28:45.218Z,9.23
2018-12-06T19:31:14.422Z,8.17
2018-12-06T19:33:43.311Z,10.17
2018-12-06T19:36:12.287Z,8.30
2018-12-06T19:38:45.137Z,7.20
2018-12-06T19:41:14.965Z,4.50
2018-12-06T19:43:44.561Z,5.87
2018-12-06T19:46:13.447Z,6.20
2018-12-06T19:48:42.007Z,8.13
2018-12-06T19:51:10.817Z,6.83
2018-12-06T19:53:39.569Z,7.73
2018-12-06T19:56:08.623Z,6.10
2018-12-06T19:58:38.269Z,6.13
2018-12-06T20:01:07.225Z,6.53
2018-12-06T20:03:36.050Z,8.50
2018-12-06T20:06:04.816Z,6.23
2018-12-06T20:08:33.687Z,4.80
2018-12-06T20:11:02.270Z,4.40
2018-12-06T20:13:30.739Z,6.10
2018-12-06T20:15:59.288Z,6.70
2018-12-06T20:18:27.716Z,5.40
2018-12-06T20:21:00.412Z,4.47
2018-12-06T20:23:29.251Z,4.50
2018-12-06T20:25:57.704Z,4.40
2018-12-06T20:28:26.707Z,6.93
2018-12-06T20:30:56.127Z,4.40
2018-12-06T20:36:02.949Z,6.23
2018-12-06T20:38:31.340Z,5.93
2018-12-06T20:41:00.022Z,4.63
2018-12-06T20:43:28.714Z,8.40
2018-12-06T20:45:57.154Z,3.67
2018-12-06T20:48:25.580Z,3.97
2018-12-06T20:50:54.012Z,5.70
2018-12-06T20:53:22.357Z,5.03
2018-12-06T20:55:50.740Z,3.97
2018-12-06T20:58:19.127Z,9.07
2018-12-06T21:00:49.373Z,4.10
2018-12-06T21:03:19.202Z,5.70
2018-12-06T21:05:47.697Z,7.20
2018-12-06T21:08:16.075Z,4.67
2018-12-06T21:10:44.426Z,5.30
2018-12-06T21:13:12.799Z,4.47
2018-12-06T21:15:41.228Z,4.60
2018-12-06T21:18:09.800Z,5.30
2018-12-06T21:20:39.869Z,7.73
2018-12-06T21:23:08.268Z,3.83
2018-12-06T21:25:37.011Z,4.73
2018-12-06T21:28:05.388Z,4.70
2018-12-06T21:30:33.817Z,4.43
2018-12-06T21:33:02.203Z,5.73
2018-12-06T21:35:30.572Z,3.63
2018-12-06T21:37:59.278Z,3.40
2018-12-06T21:40:27.890Z,4.77
2018-12-06T21:42:56.610Z,5.10
2018-12-06T21:45:24.989Z,5.30
2018-12-06T21:47:54.666Z,4.13
2018-12-06T21:50:23.030Z,5.67
2018-12-06T21:52:51.453Z,4.27
2018-12-06T21:55:19.843Z,18.50
2018-12-06T21:57:48.935Z,4.10
2018-12-06T22:00:18.021Z,8.03
2018-12-06T22:02:47.069Z,5.30
2018-12-06T22:05:15.458Z,6.80
2018-12-06T22:07:44.659Z,3.97
2018-12-06T22:10:13.012Z,3.97
2018-12-06T22:12:45.068Z,5.63
2018-12-06T22:15:13.529Z,3.30
2018-12-06T22:17:41.893Z,3.27
2018-12-06T22:20:10.234Z,2.00
2018-12-06T22:22:38.594Z,2.17
2018-12-06T22:25:07.021Z,2.43
2018-12-06T22:27:35.876Z,3.13
2018-12-06T22:30:04.556Z,2.27
2018-12-06T22:32:34.165Z,2.50
2018-12-06T22:35:02.535Z,2.10
2018-12-06T22:37:30.949Z,2.00
2018-12-06T22:39:59.324Z,3.07
2018-12-06T22:42:27.696Z,2.13
2018-12-06T22:46:00.464Z,2.00
2018-12-06T22:48:28.889Z,2.47
2018-12-06T22:50:57.230Z,2.03
2018-12-06T22:53:27.883Z,1.90
2018-12-06T22:55:56.561Z,2.40
2018-12-06T22:58:24.914Z,2.20
2018-12-06T23:00:54.590Z,1.50
2018-12-06T23:03:23.055Z,1.50
2018-12-06T23:05:53.625Z,1.67
2018-12-06T23:08:23.130Z,2.20
2018-12-06T23:10:51.593Z,1.97
2018-12-06T23:13:20.157Z,1.60
2018-12-06T23:15:48.901Z,2.13
2018-12-06T23:18:18.249Z,2.30
2018-12-06T23:20:47.807Z,2.93
2018-12-06T23:23:16.632Z,2.90
2018-12-06T23:25:45.264Z,2.40
2018-12-06T23:28:13.768Z,2.57
2018-12-06T23:30:42.176Z,3.23
2018-12-06T23:33:10.650Z,5.30
2018-12-06T23:35:39.342Z,3.40
2018-12-06T23:38:07.695Z,3.57
2018-12-06T23:40:36.082Z,2.70
2018-12-06T23:43:06.017Z,3.37
2018-12-06T23:45:34.813Z,2.90
2018-12-06T23:48:03.263Z,3.70
2018-12-06T23:50:33.943Z,2.73
2018-12-06T23:53:02.916Z,4.40
2018-12-06T23:55:32.192Z,5.00
2018-12-06T23:58:00.873Z,2.77
